createdAt,value
2017-08-08T00:00:54.633Z,94340.58
2017-08-08T00:03:22.418Z,94336.93
2017-08-08T00:05:50.213Z,94343.31
2017-08-08T00:08:17.945Z,94345.34
2017-08-08T00:10:45.678Z,94338.72
2017-08-08T00:13:13.424Z,94344.19
2017-08-08T00:15:41.120Z,94339.82
2017-08-08T00:18:09.123Z,94340.27
2017-08-08T00:20:36.838Z,94335.03
2017-08-08T00:23:04.544Z,94333.60
2017-08-08T00:25:32.270Z,94338.91
2017-08-08T00:27:59.954Z,94335.14
2017-08-08T00:30:27.677Z,94331.86
2017-08-08T00:32:55.544Z,94331.06
2017-08-08T00:35:23.318Z,94324.11
2017-08-08T00:37:51.006Z,94324.31
2017-08-08T00:40:18.742Z,94329.23
2017-08-08T00:42:46.460Z,94325.44
2017-08-08T00:45:14.214Z,94326.58
2017-08-08T00:47:41.929Z,94327.73
2017-08-08T00:50:10.564Z,94325.42
2017-08-08T00:52:38.279Z,94328.03
2017-08-08T00:55:06.278Z,94336.67
2017-08-08T00:57:33.987Z,94334.65
2017-08-08T01:00:01.679Z,94332.95
2017-08-08T01:02:29.396Z,94328.63
2017-08-08T01:04:57.131Z,94331.86
2017-08-08T01:07:24.892Z,94334.95
2017-08-08T01:09:52.603Z,94337.56
2017-08-08T01:12:20.311Z,94332.83
2017-08-08T01:14:48.148Z,94326.62
2017-08-08T01:17:15.837Z,94323.75
2017-08-08T01:19:43.673Z,94322.16
2017-08-08T01:22:11.457Z,94321.17
2017-08-08T01:24:39.185Z,94316.56
2017-08-08T01:27:06.888Z,94314.45
2017-08-08T01:29:34.634Z,94310.64
2017-08-08T01:32:02.439Z,94308.42
2017-08-08T01:34:30.148Z,94313.52
2017-08-08T01:36:57.927Z,94313.05
2017-08-08T01:39:25.642Z,94312.70
2017-08-08T01:41:53.417Z,94313.78
2017-08-08T01:44:21.136Z,94304.75
2017-08-08T01:46:48.861Z,94300.78
2017-08-08T01:49:16.621Z,94292.87
2017-08-08T01:51:44.361Z,94296.23
2017-08-08T01:54:12.121Z,94297.00
2017-08-08T01:56:39.946Z,94294.31
2017-08-08T01:59:07.694Z,94295.69
2017-08-08T02:01:35.492Z,94290.55
2017-08-08T02:04:03.249Z,94292.03
2017-08-08T02:06:31.035Z,94287.41
2017-08-08T02:08:58.816Z,94283.63
2017-08-08T02:11:26.605Z,94289.63
2017-08-08T02:13:54.304Z,94286.68
2017-08-08T02:16:22.021Z,94286.45
2017-08-08T02:18:49.797Z,94279.50
2017-08-08T02:21:17.546Z,94275.05
2017-08-08T02:23:45.249Z,94271.66
2017-08-08T02:26:13.053Z,94272.02
2017-08-08T02:28:40.749Z,94268.84
2017-08-08T02:31:08.458Z,94270.71
2017-08-08T02:33:36.149Z,94273.48
2017-08-08T02:36:03.871Z,94262.88
2017-08-08T02:38:31.666Z,94263.20
2017-08-08T02:40:59.346Z,94264.02
2017-08-08T02:43:27.172Z,94258.19
2017-08-08T02:45:54.970Z,94250.38
2017-08-08T02:48:22.754Z,94257.72
2017-08-08T02:50:50.461Z,94256.41
2017-08-08T02:53:18.192Z,94263.17
2017-08-08T02:55:45.927Z,94265.44
2017-08-08T02:58:13.736Z,94270.86
2017-08-08T03:00:41.426Z,94272.04
2017-08-08T03:03:09.161Z,94277.34
2017-08-08T03:05:36.922Z,94279.66
2017-08-08T03:08:04.589Z,94279.76
2017-08-08T03:10:32.340Z,94272.84
2017-08-08T03:13:00.023Z,94274.66
2017-08-08T03:15:27.765Z,94272.77
2017-08-08T03:17:55.468Z,94266.43
2017-08-08T03:20:23.166Z,94269.20
2017-08-08T03:22:50.904Z,94261.30
2017-08-08T03:25:18.599Z,94260.34
2017-08-08T03:27:46.473Z,94262.89
2017-08-08T03:30:14.534Z,94256.18
2017-08-08T03:32:42.294Z,94251.45
2017-08-08T03:35:10.020Z,94257.11
2017-08-08T03:37:37.747Z,94264.26
2017-08-08T03:40:05.452Z,94265.45
2017-08-08T03:42:33.151Z,94260.01
2017-08-08T03:45:00.945Z,94255.68
2017-08-08T03:47:28.712Z,94257.50
2017-08-08T03:49:56.444Z,94257.38
2017-08-08T03:52:24.177Z,94260.80
2017-08-08T03:54:51.956Z,94257.62
2017-08-08T03:57:19.680Z,94254.85
2017-08-08T03:59:47.413Z,94251.38
2017-08-08T04:02:15.192Z,94252.64
2017-08-08T04:04:42.873Z,94249.84
2017-08-08T04:07:10.647Z,94253.87
2017-08-08T04:09:38.418Z,94256.77
2017-08-08T04:12:06.220Z,94265.22
2017-08-08T04:14:33.975Z,94259.94
2017-08-08T04:17:01.745Z,94265.95
2017-08-08T04:19:29.456Z,94264.99
2017-08-08T04:21:57.196Z,94267.53
2017-08-08T04:24:24.896Z,94265.38
2017-08-08T04:26:52.585Z,94263.34
2017-08-08T04:29:20.369Z,94265.84
2017-08-08T04:31:48.142Z,94265.50
2017-08-08T04:34:15.881Z,94263.23
2017-08-08T04:36:43.571Z,94262.05
2017-08-08T04:39:11.474Z,94257.39
2017-08-08T04:41:39.176Z,94250.88
2017-08-08T04:44:06.900Z,94249.10
2017-08-08T04:46:34.656Z,94247.03
2017-08-08T04:49:02.371Z,94247.98
2017-08-08T04:51:30.453Z,94253.72
2017-08-08T04:53:58.199Z,94244.63
2017-08-08T04:56:25.905Z,94239.99
2017-08-08T04:58:53.644Z,94233.52
2017-08-08T05:01:21.448Z,94228.99
2017-08-08T05:03:49.241Z,94232.81
2017-08-08T05:06:17.058Z,94230.91
2017-08-08T05:08:44.797Z,94229.81
2017-08-08T05:11:12.571Z,94223.20
2017-08-08T05:13:40.333Z,94216.94
2017-08-08T05:16:08.035Z,94208.28
2017-08-08T05:18:35.827Z,94208.77
2017-08-08T05:21:03.567Z,94202.30
2017-08-08T05:23:31.319Z,94197.77
2017-08-08T05:25:59.026Z,94198.60
2017-08-08T05:28:26.759Z,94199.95
2017-08-08T05:30:54.555Z,94199.63
2017-08-08T05:33:22.297Z,94191.40
2017-08-08T05:35:50.135Z,94193.83
2017-08-08T05:38:17.790Z,94185.03
2017-08-08T05:40:45.510Z,94189.52
2017-08-08T05:43:13.269Z,94183.44
2017-08-08T05:45:41.051Z,94193.98
2017-08-08T05:48:09.093Z,94186.84
2017-08-08T05:50:36.801Z,94184.93
2017-08-08T05:53:04.533Z,94194.73
2017-08-08T05:55:32.309Z,94192.77
2017-08-08T05:58:00.230Z,94196.23
2017-08-08T06:00:27.959Z,94205.17
2017-08-08T06:02:55.676Z,94200.23
2017-08-08T06:05:23.437Z,94200.78
2017-08-08T06:07:51.148Z,94195.50
2017-08-08T06:10:18.929Z,94192.84
2017-08-08T06:12:47.670Z,94189.12
2017-08-08T06:15:15.405Z,94191.86
2017-08-08T06:17:43.098Z,94192.06
2017-08-08T06:20:10.878Z,94181.84
2017-08-08T06:22:38.581Z,94179.67
2017-08-08T06:25:06.304Z,94174.85
2017-08-08T06:27:34.065Z,94173.50
2017-08-08T06:30:01.772Z,94172.38
2017-08-08T06:32:29.611Z,94169.06
2017-08-08T06:34:57.414Z,94161.05
2017-08-08T06:37:25.116Z,94156.98
2017-08-08T06:39:52.830Z,94150.62
2017-08-08T06:42:20.595Z,94145.68
2017-08-08T06:44:48.305Z,94138.97
2017-08-08T06:47:16.103Z,94139.33
2017-08-08T06:49:43.801Z,94138.72
2017-08-08T06:52:11.502Z,94137.09
2017-08-08T06:54:39.290Z,94127.59
2017-08-08T06:57:07.142Z,94129.53
2017-08-08T06:59:34.868Z,94125.23
2017-08-08T07:02:02.588Z,94125.27
2017-08-08T07:04:30.772Z,94123.80
2017-08-08T07:06:58.836Z,94124.67
2017-08-08T07:09:26.639Z,94120.02
2017-08-08T07:11:54.620Z,94123.89
2017-08-08T07:14:22.457Z,94117.43
2017-08-08T07:16:50.433Z,94121.91
2017-08-08T07:19:18.248Z,94122.13
2017-08-08T07:21:45.947Z,94114.89
2017-08-08T07:24:13.722Z,94117.67
2017-08-08T07:26:41.495Z,94110.75
2017-08-08T07:29:09.288Z,94115.39
2017-08-08T07:31:36.995Z,94118.69
2017-08-08T07:34:04.809Z,94118.53
2017-08-08T07:36:32.598Z,94115.00
2017-08-08T07:39:00.317Z,94120.01
2017-08-08T07:41:28.054Z,94114.67
2017-08-08T07:43:55.770Z,94112.15
2017-08-08T07:46:23.568Z,94110.44
2017-08-08T07:48:51.307Z,94105.97
2017-08-08T07:51:19.056Z,94109.52
2017-08-08T07:53:47.610Z,94104.75
2017-08-08T07:56:15.355Z,94100.13
2017-08-08T07:58:43.110Z,94100.97
2017-08-08T08:01:10.813Z,94098.41
2017-08-08T08:03:38.731Z,94096.30
2017-08-08T08:06:06.457Z,94090.16
2017-08-08T08:08:34.196Z,94090.06
2017-08-08T08:11:02.266Z,94089.61
2017-08-08T08:13:29.956Z,94083.76
2017-08-08T08:15:57.659Z,94077.05
2017-08-08T08:18:25.447Z,94069.57
2017-08-08T08:20:53.164Z,94066.88
2017-08-08T08:23:20.891Z,94059.00
2017-08-08T08:25:48.658Z,94044.42
2017-08-08T08:28:16.424Z,94036.73
2017-08-08T08:30:44.194Z,94043.98
2017-08-08T08:33:11.969Z,94037.41
2017-08-08T08:35:39.760Z,94029.82
2017-08-08T08:38:07.465Z,94025.14
2017-08-08T08:40:35.231Z,94020.78
2017-08-08T08:43:02.990Z,94019.41
2017-08-08T08:45:30.718Z,94017.44
2017-08-08T08:47:58.661Z,94012.85
2017-08-08T08:50:26.416Z,94012.96
2017-08-08T08:52:54.419Z,94007.36
2017-08-08T08:55:22.148Z,94004.23
2017-08-08T08:57:50.077Z,94003.69
2017-08-08T09:00:17.866Z,94001.99
2017-08-08T09:02:45.611Z,94007.19
2017-08-08T09:05:13.432Z,94004.70
2017-08-08T09:07:41.173Z,94003.70
2017-08-08T09:10:08.969Z,94004.27
2017-08-08T09:12:36.732Z,94008.70
2017-08-08T09:15:04.384Z,94001.90
2017-08-08T09:17:32.233Z,94004.78
2017-08-08T09:19:59.935Z,93998.83
2017-08-08T09:22:27.728Z,93991.75
2017-08-08T09:24:55.445Z,93989.38
2017-08-08T09:27:23.291Z,93981.33
2017-08-08T09:29:51.002Z,93982.84
2017-08-08T09:32:19.869Z,93972.81
2017-08-08T09:34:49.652Z,93962.14
2017-08-08T09:37:17.416Z,93956.58
2017-08-08T09:39:45.530Z,93952.08
2017-08-08T09:42:13.446Z,93952.45
2017-08-08T09:44:41.147Z,93949.86
2017-08-08T09:47:08.862Z,93943.13
2017-08-08T09:49:36.619Z,93947.78
2017-08-08T09:52:04.351Z,93946.44
2017-08-08T09:54:32.976Z,93949.45
2017-08-08T09:57:00.665Z,93940.22
2017-08-08T09:59:28.361Z,93935.92
2017-08-08T10:01:56.187Z,93928.55
2017-08-08T10:04:23.956Z,93927.27
2017-08-08T10:06:51.690Z,93921.81
2017-08-08T10:09:19.418Z,93928.57
2017-08-08T10:11:47.131Z,93926.78
2017-08-08T10:14:15.091Z,93921.58
2017-08-08T10:16:42.790Z,93917.12
2017-08-08T10:19:10.548Z,93914.48
2017-08-08T10:21:38.327Z,93910.42
2017-08-08T10:24:06.092Z,93906.41
2017-08-08T10:26:33.806Z,93903.52
2017-08-08T10:29:01.523Z,93906.34
2017-08-08T10:31:29.300Z,93907.45
2017-08-08T10:33:57.069Z,93902.92
2017-08-08T10:36:24.793Z,93889.86
2017-08-08T10:38:52.571Z,93896.80
2017-08-08T10:41:20.301Z,93895.08
2017-08-08T10:43:47.978Z,93892.35
2017-08-08T10:46:15.689Z,93888.31
2017-08-08T10:48:43.443Z,93889.75
2017-08-08T10:51:11.149Z,93884.22
2017-08-08T10:53:38.945Z,93878.61
2017-08-08T10:56:06.695Z,93872.44
2017-08-08T10:58:34.434Z,93867.48
2017-08-08T11:01:02.198Z,93864.69
2017-08-08T11:03:29.885Z,93861.03
2017-08-08T11:05:57.611Z,93860.60
2017-08-08T11:08:25.487Z,93860.63
2017-08-08T11:10:53.204Z,93859.25
2017-08-08T11:13:20.883Z,93863.45
2017-08-08T11:15:48.646Z,93861.92
2017-08-08T11:18:16.359Z,93850.50
2017-08-08T11:20:44.103Z,93844.98
2017-08-08T11:23:11.899Z,93843.66
2017-08-08T11:25:39.643Z,93848.06
2017-08-08T11:28:07.615Z,93841.48
2017-08-08T11:30:35.418Z,93844.11
2017-08-08T11:33:03.516Z,93844.78
2017-08-08T11:35:31.310Z,93830.81
2017-08-08T11:37:59.829Z,93829.17
2017-08-08T11:40:27.577Z,93826.07
2017-08-08T11:42:55.430Z,93824.38
2017-08-08T11:45:23.166Z,93828.85
2017-08-08T11:47:50.932Z,93821.67
2017-08-08T11:50:18.643Z,93822.02
2017-08-08T11:52:46.513Z,93817.80
2017-08-08T11:55:14.288Z,93821.39
2017-08-08T11:57:42.126Z,93810.88
2017-08-08T12:00:09.874Z,93800.19
2017-08-08T12:02:37.601Z,93806.34
2017-08-08T12:05:05.345Z,93805.34
2017-08-08T12:07:33.065Z,93798.28
2017-08-08T12:10:00.906Z,93794.88
2017-08-08T12:12:28.714Z,93787.39
2017-08-08T12:14:56.413Z,93781.77
2017-08-08T12:17:24.203Z,93773.70
2017-08-08T12:19:51.888Z,93776.41
2017-08-08T12:22:19.807Z,93773.97
2017-08-08T12:24:47.560Z,93768.84
2017-08-08T12:27:15.358Z,93772.56
2017-08-08T12:29:43.128Z,93769.83
2017-08-08T12:32:10.901Z,93763.72
2017-08-08T12:34:38.678Z,93764.58
2017-08-08T12:37:06.484Z,93765.82
2017-08-08T12:39:34.274Z,93766.83
2017-08-08T12:42:02.042Z,93747.50
2017-08-08T12:44:29.748Z,93740.47
2017-08-08T12:46:57.658Z,93738.45
2017-08-08T12:49:25.376Z,93738.98
2017-08-08T12:51:53.076Z,93739.44
2017-08-08T12:54:20.854Z,93741.69
2017-08-08T12:56:48.605Z,93740.46
2017-08-08T12:59:16.389Z,93741.16
2017-08-08T13:01:44.175Z,93739.48
2017-08-08T13:04:11.961Z,93746.68
2017-08-08T13:06:39.755Z,93746.57
2017-08-08T13:09:07.545Z,93746.42
2017-08-08T13:11:35.258Z,93748.06
2017-08-08T13:14:02.943Z,93759.39
2017-08-08T13:16:30.675Z,93757.91
2017-08-08T13:18:58.363Z,93763.32
2017-08-08T13:21:26.426Z,93767.86
2017-08-08T13:23:54.189Z,93779.47
2017-08-08T13:26:21.877Z,93766.36
2017-08-08T13:28:49.665Z,93772.38
2017-08-08T13:31:17.372Z,93770.09
2017-08-08T13:33:45.096Z,93769.09
2017-08-08T13:36:12.990Z,93771.38
2017-08-08T13:38:40.716Z,93774.02
2017-08-08T13:41:08.499Z,93783.78
2017-08-08T13:43:36.373Z,93783.14
2017-08-08T13:46:04.101Z,93778.59
2017-08-08T13:48:31.810Z,93781.20
2017-08-08T13:50:59.528Z,93782.93
2017-08-08T13:53:27.223Z,93777.14
2017-08-08T13:55:54.982Z,93783.92
2017-08-08T13:58:22.696Z,93776.55
2017-08-08T14:00:50.450Z,93777.13
2017-08-08T14:03:18.251Z,93776.83
2017-08-08T14:05:46.046Z,93778.52
2017-08-08T14:08:13.815Z,93771.36
2017-08-08T14:10:41.607Z,93769.09
2017-08-08T14:13:09.314Z,93765.00
2017-08-08T14:15:38.034Z,93765.81
2017-08-08T14:18:05.997Z,93756.21
2017-08-08T14:20:33.735Z,93767.68
2017-08-08T14:23:01.482Z,93768.31
2017-08-08T14:25:29.330Z,93770.69
2017-08-08T14:27:57.043Z,93759.20
2017-08-08T14:30:24.912Z,93758.64
2017-08-08T14:32:52.695Z,93759.20
2017-08-08T14:35:20.451Z,93763.73
2017-08-08T14:37:48.233Z,93761.53
2017-08-08T14:40:15.999Z,93745.79
2017-08-08T14:42:43.756Z,93740.44
2017-08-08T14:45:11.514Z,93739.05
2017-08-08T14:47:39.302Z,93740.36
2017-08-08T14:50:07.044Z,93724.49
2017-08-08T14:52:34.752Z,93729.94
2017-08-08T14:55:02.537Z,93722.17
2017-08-08T14:57:30.310Z,93719.78
2017-08-08T14:59:58.060Z,93712.58
2017-08-08T15:02:25.916Z,93715.08
2017-08-08T15:04:53.657Z,93714.17
2017-08-08T15:07:21.570Z,93715.42
2017-08-08T15:09:51.372Z,93719.66
2017-08-08T15:12:19.190Z,93724.84
2017-08-08T15:14:46.932Z,93719.70
2017-08-08T15:17:14.679Z,93721.91
2017-08-08T15:19:42.392Z,93727.58
2017-08-08T15:22:10.194Z,93735.52
2017-08-08T15:24:37.995Z,93736.09
2017-08-08T15:27:05.956Z,93738.15
2017-08-08T15:29:33.697Z,93733.44
2017-08-08T15:32:01.460Z,93732.92
2017-08-08T15:34:29.343Z,93735.26
2017-08-08T15:36:57.101Z,93743.69
2017-08-08T15:39:24.810Z,93745.61
2017-08-08T15:41:52.576Z,93748.67
2017-08-08T15:44:20.293Z,93747.67
2017-08-08T15:46:48.107Z,93752.12
2017-08-08T15:49:15.789Z,93752.49
2017-08-08T15:51:44.708Z,93748.95
2017-08-08T15:54:12.474Z,93752.09
2017-08-08T15:56:40.195Z,93749.97
2017-08-08T15:59:07.949Z,93745.41
2017-08-08T16:01:36.059Z,93742.48
2017-08-08T16:04:03.744Z,93739.35
2017-08-08T16:06:31.538Z,93741.73
2017-08-08T16:08:59.306Z,93747.17
2017-08-08T16:11:27.634Z,93746.41
2017-08-08T16:13:55.517Z,93754.97
2017-08-08T16:16:24.264Z,93761.69
2017-08-08T16:18:52.017Z,93760.06
2017-08-08T16:21:19.785Z,93769.49
2017-08-08T16:23:47.547Z,93774.44
2017-08-08T16:26:15.290Z,93770.52
2017-08-08T16:28:43.065Z,93760.41
2017-08-08T16:31:10.980Z,93763.66
2017-08-08T16:33:38.781Z,93765.38
2017-08-08T16:36:06.549Z,93764.46
2017-08-08T16:38:34.292Z,93766.92
2017-08-08T16:41:01.976Z,93770.51
2017-08-08T16:43:29.740Z,93771.77
2017-08-08T16:45:57.569Z,93771.48
2017-08-08T16:48:25.963Z,93778.91
2017-08-08T16:50:53.746Z,93774.09
2017-08-08T16:53:22.372Z,93776.09
2017-08-08T16:55:50.101Z,93779.97
2017-08-08T16:58:18.051Z,93777.80
2017-08-08T17:00:45.741Z,93783.83
2017-08-08T17:03:14.632Z,93779.31
2017-08-08T17:05:42.516Z,93785.66
2017-08-08T17:08:10.211Z,93791.19
2017-08-08T17:10:37.932Z,93788.56
2017-08-08T17:13:05.700Z,93793.73
2017-08-08T17:15:33.427Z,93798.23
2017-08-08T17:18:01.171Z,93795.81
2017-08-08T17:20:29.024Z,93803.58
2017-08-08T17:22:56.742Z,93808.12
2017-08-08T17:25:24.523Z,93807.84
2017-08-08T17:27:52.313Z,93815.11
2017-08-08T17:30:20.023Z,93817.92
2017-08-08T17:32:47.892Z,93813.55
2017-08-08T17:35:15.617Z,93813.98
2017-08-08T17:37:43.333Z,93817.89
2017-08-08T17:40:11.093Z,93827.43
2017-08-08T17:42:38.812Z,93827.44
2017-08-08T17:45:06.591Z,93831.30
2017-08-08T17:47:34.313Z,93834.99
2017-08-08T17:50:02.118Z,93846.98
2017-08-08T17:52:29.878Z,93845.97
2017-08-08T17:54:57.635Z,93838.08
2017-08-08T17:57:25.366Z,93831.45
2017-08-08T17:59:53.134Z,93845.49
2017-08-08T18:02:20.905Z,93847.92
2017-08-08T18:04:48.721Z,93843.78
2017-08-08T18:07:16.489Z,93854.52
2017-08-08T18:09:44.387Z,93854.11
2017-08-08T18:12:12.100Z,93855.43
2017-08-08T18:14:39.856Z,93859.94
2017-08-08T18:17:07.680Z,93865.09
2017-08-08T18:19:35.609Z,93863.81
2017-08-08T18:22:03.356Z,93864.05
2017-08-08T18:24:31.161Z,93875.62
2017-08-08T18:26:58.936Z,93875.35
2017-08-08T18:29:26.631Z,93877.75
2017-08-08T18:31:54.439Z,93886.02
2017-08-08T18:34:22.148Z,93886.02
2017-08-08T18:36:50.609Z,93882.25
2017-08-08T18:39:18.584Z,93885.38
2017-08-08T18:41:46.452Z,93900.60
2017-08-08T18:44:14.301Z,93912.80
2017-08-08T18:46:42.230Z,93910.42
2017-08-08T18:49:10.781Z,93915.19
2017-08-08T18:51:38.541Z,93914.98
2017-08-08T18:54:06.643Z,93913.02
2017-08-08T18:56:34.536Z,93914.88
2017-08-08T18:59:03.489Z,93915.47
2017-08-08T19:01:31.334Z,93925.32
2017-08-08T19:03:59.203Z,93927.00
2017-08-08T19:06:26.982Z,93927.59
2017-08-08T19:08:54.764Z,93913.86
2017-08-08T19:11:22.502Z,93918.97
2017-08-08T19:13:51.919Z,93922.00
2017-08-08T19:16:20.013Z,93922.22
2017-08-08T19:18:48.829Z,93928.81
2017-08-08T19:21:16.588Z,93930.19
2017-08-08T19:23:44.464Z,93932.30
2017-08-08T19:26:12.312Z,93935.06
2017-08-08T19:28:40.056Z,93937.70
2017-08-08T19:31:08.001Z,93944.41
2017-08-08T19:33:35.938Z,93944.89
2017-08-08T19:36:04.557Z,93947.55
2017-08-08T19:38:32.356Z,93943.66
2017-08-08T19:41:00.479Z,93941.92
2017-08-08T19:43:28.305Z,93935.38
2017-08-08T19:45:56.119Z,93937.69
2017-08-08T19:48:23.893Z,93942.59
2017-08-08T19:50:51.673Z,93947.41
2017-08-08T19:53:19.471Z,93944.55
2017-08-08T19:55:48.143Z,93946.66
2017-08-08T19:58:15.917Z,93953.67
2017-08-08T20:00:43.779Z,93951.50
2017-08-08T20:03:11.735Z,93955.33
2017-08-08T20:05:39.512Z,93963.81
2017-08-08T20:08:07.249Z,93962.74
2017-08-08T20:10:35.000Z,93965.53
2017-08-08T20:13:02.782Z,93978.11
2017-08-08T20:15:30.491Z,93977.55
2017-08-08T20:17:58.210Z,93990.14
2017-08-08T20:20:26.095Z,93994.87
2017-08-08T20:22:53.894Z,93996.83
2017-08-08T20:25:22.492Z,93993.38
2017-08-08T20:27:50.344Z,93973.58
2017-08-08T20:30:18.119Z,93972.25
2017-08-08T20:32:46.035Z,93971.30
2017-08-08T20:35:13.799Z,93973.62
2017-08-08T20:37:41.548Z,93979.30
2017-08-08T20:40:09.482Z,93983.11
2017-08-08T20:42:37.389Z,93985.51
2017-08-08T20:45:05.093Z,93995.05
2017-08-08T20:47:32.867Z,93996.63
2017-08-08T20:50:00.590Z,93994.58
2017-08-08T20:52:28.376Z,94002.89
2017-08-08T20:54:56.211Z,93999.42
2017-08-08T20:57:23.987Z,93995.56
2017-08-08T20:59:51.925Z,93999.66
2017-08-08T21:02:19.634Z,94003.61
2017-08-08T21:04:47.355Z,94000.36
2017-08-08T21:07:15.117Z,94004.38
2017-08-08T21:09:42.878Z,94003.46
2017-08-08T21:12:10.584Z,94001.08
2017-08-08T21:14:38.355Z,94013.43
2017-08-08T21:17:06.160Z,94017.31
2017-08-08T21:19:33.900Z,94023.38
2017-08-08T21:22:01.649Z,94029.19
2017-08-08T21:24:29.370Z,94022.34
2017-08-08T21:26:57.114Z,94033.03
2017-08-08T21:29:24.822Z,94037.11
2017-08-08T21:31:52.582Z,94047.08
2017-08-08T21:34:20.360Z,94050.30
2017-08-08T21:36:48.179Z,94058.66
2017-08-08T21:39:15.894Z,94068.48
2017-08-08T21:41:43.617Z,94073.91
2017-08-08T21:44:11.406Z,94081.25
2017-08-08T21:46:39.163Z,94099.84
2017-08-08T21:49:06.949Z,94123.89
2017-08-08T21:51:34.688Z,94136.17
2017-08-08T21:54:02.500Z,94135.31
2017-08-08T21:56:30.296Z,94134.50
2017-08-08T21:58:58.037Z,94136.05
2017-08-08T22:01:25.786Z,94136.93
2017-08-08T22:03:53.519Z,94153.35
2017-08-08T22:06:21.281Z,94165.44
2017-08-08T22:08:49.059Z,94171.27
2017-08-08T22:11:16.732Z,94176.39
2017-08-08T22:13:44.436Z,94177.73
2017-08-08T22:16:12.204Z,94183.78
2017-08-08T22:18:39.969Z,94187.16
2017-08-08T22:21:07.672Z,94191.13
2017-08-08T22:23:35.504Z,94190.09
2017-08-08T22:26:03.723Z,94198.95
2017-08-08T22:28:32.398Z,94192.12
2017-08-08T22:31:00.145Z,94193.22
2017-08-08T22:33:27.836Z,94197.35
2017-08-08T22:35:55.579Z,94205.28
2017-08-08T22:38:23.376Z,94206.86
2017-08-08T22:40:51.080Z,94221.53
2017-08-08T22:43:18.873Z,94225.09
2017-08-08T22:45:46.563Z,94226.94
2017-08-08T22:48:14.302Z,94243.03
2017-08-08T22:50:42.055Z,94244.20
2017-08-08T22:53:09.785Z,94249.39
2017-08-08T22:55:37.524Z,94247.52
2017-08-08T22:58:05.322Z,94246.99
2017-08-08T23:00:33.083Z,94247.66
2017-08-08T23:03:01.558Z,94239.81
2017-08-08T23:05:29.308Z,94249.62
2017-08-08T23:07:56.998Z,94258.08
2017-08-08T23:10:24.786Z,94275.09
2017-08-08T23:12:52.481Z,94269.63
2017-08-08T23:15:20.235Z,94272.93
2017-08-08T23:17:47.951Z,94270.32
2017-08-08T23:20:15.803Z,94273.86
2017-08-08T23:22:43.507Z,94275.54
2017-08-08T23:25:11.209Z,94274.25
2017-08-08T23:27:38.952Z,94275.70
2017-08-08T23:30:06.626Z,94276.59
2017-08-08T23:32:34.678Z,94283.03
2017-08-08T23:35:02.391Z,94284.27
2017-08-08T23:37:35.778Z,94286.76
2017-08-08T23:40:03.570Z,94282.14
2017-08-08T23:42:31.666Z,94278.37
2017-08-08T23:44:59.390Z,94307.92
2017-08-08T23:47:27.105Z,94305.77
2017-08-08T23:49:55.016Z,94309.44
2017-08-08T23:52:22.727Z,94311.98
2017-08-08T23:54:50.455Z,94305.86
2017-08-08T23:57:18.220Z,94301.47
2017-08-08T23:59:45.943Z,94301.16
